sensor_id;sensor_type;location;lat;lon;timestamp;pressure;altitude;pressure_sealevel;temperature;humidity
31062;BME280;17724;53.546;9.974;2023-03-01T00:00:21;103177.03;;;4.62;76.73
31062;BME280;17724;53.546;9.974;2023-03-01T00:04:22;103177.72;;;4.56;76.95
31062;BME280;17724;53.546;9.974;2023-03-01T00:08:24;103183.25;;;4.47;77.75
31062;BME280;17724;53.546;9.974;2023-03-01T00:12:24;103180.75;;;4.53;77.77
31062;BME280;17724;53.546;9.974;2023-03-01T00:16:28;103167.19;;;4.35;79.57
31062;BME280;17724;53.546;9.974;2023-03-01T00:20:29;103176.63;;;4.49;79.27
31062;BME280;17724;53.546;9.974;2023-03-01T00:24:29;103169.56;;;4.38;79.38
31062;BME280;17724;53.546;9.974;2023-03-01T00:28:31;103171.28;;;4.39;79.13
31062;BME280;17724;53.546;9.974;2023-03-01T00:32:31;103171.41;;;4.12;79.04
31062;BME280;17724;53.546;9.974;2023-03-01T00:36:35;103169.91;;;4.17;79.31
31062;BME280;17724;53.546;9.974;2023-03-01T00:40:36;103164.34;;;4.01;81.03
31062;BME280;17724;53.546;9.974;2023-03-01T00:44:36;103160.34;;;4.13;80.22
31062;BME280;17724;53.546;9.974;2023-03-01T00:48:37;103156.53;;;4.06;81.09
31062;BME280;17724;53.546;9.974;2023-03-01T00:52:38;103165.19;;;4.02;80.73
31062;BME280;17724;53.546;9.974;2023-03-01T00:56:38;103157.09;;;4.10;80.29
31062;BME280;17724;53.546;9.974;2023-03-01T01:00:39;103165.38;;;4.00;80.92
31062;BME280;17724;53.546;9.974;2023-03-01T01:04:39;103167.97;;;4.10;79.76
31062;BME280;17724;53.546;9.974;2023-03-01T01:08:40;103160.66;;;4.10;78.45
31062;BME280;17724;53.546;9.974;2023-03-01T01:12:40;103156.66;;;3.97;78.92
31062;BME280;17724;53.546;9.974;2023-03-01T01:16:41;103150.50;;;3.94;79.39
31062;BME280;17724;53.546;9.974;2023-03-01T01:20:41;103149.56;;;3.50;80.04
31062;BME280;17724;53.546;9.974;2023-03-01T01:24:42;103149.56;;;3.50;80.58
31062;BME280;17724;53.546;9.974;2023-03-01T01:28:44;103149.44;;;3.52;79.81
31062;BME280;17724;53.546;9.974;2023-03-01T01:32:44;103153.72;;;3.72;78.09
31062;BME280;17724;53.546;9.974;2023-03-01T01:36:49;103142.13;;;3.88;77.47
31062;BME280;17724;53.546;9.974;2023-03-01T01:40:51;103144.59;;;3.81;75.92
31062;BME280;17724;53.546;9.974;2023-03-01T01:53:36;103128.41;;;3.62;75.12
31062;BME280;17724;53.546;9.974;2023-03-01T01:57:41;103123.44;;;3.57;74.95
31062;BME280;17724;53.546;9.974;2023-03-01T02:01:43;103123.44;;;3.57;74.22
31062;BME280;17724;53.546;9.974;2023-03-01T02:09:53;103124.25;;;3.67;72.32
31062;BME280;17724;53.546;9.974;2023-03-01T02:13:54;103107.56;;;3.88;71.43
31062;BME280;17724;53.546;9.974;2023-03-01T02:17:56;103113.88;;;3.89;70.46
31062;BME280;17724;53.546;9.974;2023-03-01T02:22:12;103105.88;;;3.69;69.43
31062;BME280;17724;53.546;9.974;2023-03-01T02:26:36;103122.28;;;3.95;68.52
31062;BME280;17724;53.546;9.974;2023-03-01T02:30:45;103108.19;;;3.82;69.54
31062;BME280;17724;53.546;9.974;2023-03-01T02:35:06;103106.13;;;3.40;71.11
31062;BME280;17724;53.546;9.974;2023-03-01T02:39:08;103110.06;;;3.46;70.94
31062;BME280;17724;53.546;9.974;2023-03-01T02:43:16;103107.13;;;3.39;70.67
31062;BME280;17724;53.546;9.974;2023-03-01T02:47:17;103118.00;;;3.57;69.62
31062;BME280;17724;53.546;9.974;2023-03-01T02:55:53;103102.78;;;3.64;67.96
31062;BME280;17724;53.546;9.974;2023-03-01T02:59:55;103102.53;;;3.76;67.56
31062;BME280;17724;53.546;9.974;2023-03-01T03:03:56;103102.44;;;3.85;65.95
31062;BME280;17724;53.546;9.974;2023-03-01T03:07:59;103092.03;;;3.81;64.49
31062;BME280;17724;53.546;9.974;2023-03-01T03:12:00;103106.41;;;3.73;63.97
31062;BME280;17724;53.546;9.974;2023-03-01T03:16:02;103092.44;;;3.68;65.27
31062;BME280;17724;53.546;9.974;2023-03-01T03:20:05;103097.19;;;3.48;69.21
31062;BME280;17724;53.546;9.974;2023-03-01T03:24:06;103092.72;;;3.47;70.23
31062;BME280;17724;53.546;9.974;2023-03-01T03:28:07;103094.09;;;2.97;68.40
31062;BME280;17724;53.546;9.974;2023-03-01T03:32:10;103089.94;;;3.21;68.38
31062;BME280;17724;53.546;9.974;2023-03-01T03:36:15;103089.84;;;3.13;68.41
31062;BME280;17724;53.546;9.974;2023-03-01T03:40:17;103082.28;;;3.07;68.63
31062;BME280;17724;53.546;9.974;2023-03-01T03:44:18;103084.25;;;3.14;69.03
31062;BME280;17724;53.546;9.974;2023-03-01T03:48:19;103084.44;;;3.49;68.14
31062;BME280;17724;53.546;9.974;2023-03-01T03:52:20;103083.34;;;3.59;67.67
31062;BME280;17724;53.546;9.974;2023-03-01T03:56:20;103072.06;;;3.54;67.79
31062;BME280;17724;53.546;9.974;2023-03-01T04:00:22;103074.16;;;3.60;66.79
31062;BME280;17724;53.546;9.974;2023-03-01T04:04:24;103068.78;;;3.51;67.70
31062;BME280;17724;53.546;9.974;2023-03-01T04:08:24;103064.66;;;3.46;68.82
31062;BME280;17724;53.546;9.974;2023-03-01T04:12:25;103059.59;;;3.69;69.59
31062;BME280;17724;53.546;9.974;2023-03-01T04:16:26;103055.88;;;3.70;70.32
31062;BME280;17724;53.546;9.974;2023-03-01T04:20:28;103061.56;;;3.41;70.84
31062;BME280;17724;53.546;9.974;2023-03-01T04:24:29;103053.47;;;3.67;69.25
31062;BME280;17724;53.546;9.974;2023-03-01T04:28:38;103053.72;;;3.56;66.45
31062;BME280;17724;53.546;9.974;2023-03-01T04:32:40;103064.06;;;3.53;65.96
31062;BME280;17724;53.546;9.974;2023-03-01T04:36:41;103055.34;;;3.49;66.60
31062;BME280;17724;53.546;9.974;2023-03-01T04:40:41;103060.69;;;3.77;65.98
31062;BME280;17724;53.546;9.974;2023-03-01T04:44:43;103060.25;;;3.63;66.31
31062;BME280;17724;53.546;9.974;2023-03-01T04:48:45;103052.47;;;3.68;68.00
31062;BME280;17724;53.546;9.974;2023-03-01T04:52:47;103054.16;;;3.69;68.21
31062;BME280;17724;53.546;9.974;2023-03-01T04:56:47;103068.69;;;3.78;67.47
31062;BME280;17724;53.546;9.974;2023-03-01T05:00:48;103059.53;;;3.79;67.77
31062;BME280;17724;53.546;9.974;2023-03-01T05:04:49;103063.03;;;3.54;67.82
31062;BME280;17724;53.546;9.974;2023-03-01T05:08:49;103053.53;;;3.76;67.77
31062;BME280;17724;53.546;9.974;2023-03-01T05:12:50;103045.97;;;3.87;67.58
31062;BME280;17724;53.546;9.974;2023-03-01T05:16:55;103049.16;;;3.83;66.80
31062;BME280;17724;53.546;9.974;2023-03-01T05:21:03;103041.59;;;3.94;67.12
31062;BME280;17724;53.546;9.974;2023-03-01T05:25:05;103049.56;;;3.88;66.96
31062;BME280;17724;53.546;9.974;2023-03-01T05:29:05;103060.88;;;3.75;67.46
31062;BME280;17724;53.546;9.974;2023-03-01T05:33:06;103053.09;;;3.44;68.05
31062;BME280;17724;53.546;9.974;2023-03-01T05:37:13;103058.00;;;3.41;68.66
31062;BME280;17724;53.546;9.974;2023-03-01T05:41:15;103051.19;;;3.63;68.98
31062;BME280;17724;53.546;9.974;2023-03-01T05:45:17;103042.72;;;3.84;69.45
31062;BME280;17724;53.546;9.974;2023-03-01T05:49:18;103036.53;;;4.00;69.52
31062;BME280;17724;53.546;9.974;2023-03-01T05:53:19;103035.88;;;3.80;69.90
31062;BME280;17724;53.546;9.974;2023-03-01T05:57:23;103030.56;;;3.96;69.92
31062;BME280;17724;53.546;9.974;2023-03-01T06:01:23;103035.34;;;3.76;70.65
31062;BME280;17724;53.546;9.974;2023-03-01T06:05:24;103022.91;;;4.00;71.42
31062;BME280;17724;53.546;9.974;2023-03-01T06:09:25;103020.59;;;3.87;72.16
31062;BME280;17724;53.546;9.974;2023-03-01T06:13:26;103015.84;;;3.89;71.93
31062;BME280;17724;53.546;9.974;2023-03-01T06:17:29;103023.91;;;3.73;70.81
31062;BME280;17724;53.546;9.974;2023-03-01T06:21:30;103023.19;;;3.44;70.75
31062;BME280;17724;53.546;9.974;2023-03-01T06:25:31;103021.50;;;3.69;71.37
31062;BME280;17724;53.546;9.974;2023-03-01T06:29:31;103023.66;;;3.84;71.13
31062;BME280;17724;53.546;9.974;2023-03-01T06:33:32;103019.63;;;3.70;70.99
31062;BME280;17724;53.546;9.974;2023-03-01T06:37:32;103020.47;;;3.70;71.91
31062;BME280;17724;53.546;9.974;2023-03-01T06:41:33;103039.81;;;3.85;70.71
31062;BME280;17724;53.546;9.974;2023-03-01T06:45:33;103036.88;;;3.79;70.60
31062;BME280;17724;53.546;9.974;2023-03-01T06:49:34;103033.34;;;3.86;69.09
31062;BME280;17724;53.546;9.974;2023-03-01T06:53:34;103044.00;;;3.98;68.82
31062;BME280;17724;53.546;9.974;2023-03-01T06:57:35;103037.94;;;3.86;69.21
31062;BME280;17724;53.546;9.974;2023-03-01T07:01:36;103041.50;;;4.04;69.52
31062;BME280;17724;53.546;9.974;2023-03-01T07:05:36;103045.38;;;3.76;69.95
31062;BME280;17724;53.546;9.974;2023-03-01T07:09:37;103037.34;;;3.92;70.69
31062;BME280;17724;53.546;9.974;2023-03-01T07:13:37;103035.94;;;4.14;71.17
31062;BME280;17724;53.546;9.974;2023-03-01T07:17:38;103028.00;;;4.29;71.20
31062;BME280;17724;53.546;9.974;2023-03-01T07:21:39;103025.38;;;4.45;70.45
31062;BME280;17724;53.546;9.974;2023-03-01T07:25:39;103024.09;;;4.65;69.58
31062;BME280;17724;53.546;9.974;2023-03-01T07:29:40;103018.97;;;4.62;68.37
31062;BME280;17724;53.546;9.974;2023-03-01T07:33:40;103020.88;;;4.78;65.38
31062;BME280;17724;53.546;9.974;2023-03-01T07:37:41;103016.13;;;4.80;65.43
31062;BME280;17724;53.546;9.974;2023-03-01T07:41:41;103023.81;;;4.85;65.15
31062;BME280;17724;53.546;9.974;2023-03-01T07:45:42;103018.56;;;5.00;65.41
31062;BME280;17724;53.546;9.974;2023-03-01T07:49:42;103016.75;;;5.41;64.67
31062;BME280;17724;53.546;9.974;2023-03-01T07:53:46;103018.97;;;5.46;63.15
31062;BME280;17724;53.546;9.974;2023-03-01T07:57:47;103015.03;;;5.56;63.35
31062;BME280;17724;53.546;9.974;2023-03-01T08:01:48;103021.53;;;5.55;64.03
31062;BME280;17724;53.546;9.974;2023-03-01T08:05:48;103023.06;;;5.58;64.36
31062;BME280;17724;53.546;9.974;2023-03-01T08:09:49;103018.47;;;5.75;64.31
31062;BME280;17724;53.546;9.974;2023-03-01T08:13:49;103042.88;;;5.92;64.58
31062;BME280;17724;53.546;9.974;2023-03-01T08:17:50;103039.81;;;5.96;65.37
31062;BME280;17724;53.546;9.974;2023-03-01T08:21:50;103038.75;;;5.97;65.80
31062;BME280;17724;53.546;9.974;2023-03-01T08:25:51;103028.19;;;5.93;65.62
31062;BME280;17724;53.546;9.974;2023-03-01T08:29:53;103027.31;;;6.01;66.28
31062;BME280;17724;53.546;9.974;2023-03-01T08:33:59;103025.09;;;6.05;67.05
31062;BME280;17724;53.546;9.974;2023-03-01T08:38:00;103029.34;;;6.15;65.97
31062;BME280;17724;53.546;9.974;2023-03-01T08:42:01;103025.03;;;6.21;66.26
31062;BME280;17724;53.546;9.974;2023-03-01T08:46:01;103023.63;;;6.33;67.20
31062;BME280;17724;53.546;9.974;2023-03-01T08:50:03;103017.66;;;6.30;66.71
31062;BME280;17724;53.546;9.974;2023-03-01T08:54:05;103012.66;;;6.50;67.47
31062;BME280;17724;53.546;9.974;2023-03-01T08:58:06;103027.78;;;7.00;65.05
31062;BME280;17724;53.546;9.974;2023-03-01T09:02:16;103039.38;;;6.79;64.06
31062;BME280;17724;53.546;9.974;2023-03-01T09:06:16;103032.72;;;6.73;64.60
31062;BME280;17724;53.546;9.974;2023-03-01T09:10:17;103030.34;;;6.31;67.03
31062;BME280;17724;53.546;9.974;2023-03-01T09:14:18;103033.59;;;6.18;67.60
31062;BME280;17724;53.546;9.974;2023-03-01T09:18:18;103018.28;;;5.84;68.63
31062;BME280;17724;53.546;9.974;2023-03-01T09:22:19;103023.41;;;5.71;70.93
31062;BME280;17724;53.546;9.974;2023-03-01T09:26:21;103025.78;;;5.90;70.45
31062;BME280;17724;53.546;9.974;2023-03-01T09:30:22;103023.72;;;6.09;70.14
31062;BME280;17724;53.546;9.974;2023-03-01T09:34:24;103025.59;;;5.84;71.77
31062;BME280;17724;53.546;9.974;2023-03-01T09:38:25;103027.47;;;5.91;72.65
31062;BME280;17724;53.546;9.974;2023-03-01T09:42:27;103020.75;;;6.35;71.27
31062;BME280;17724;53.546;9.974;2023-03-01T09:46:32;103024.38;;;6.66;71.07
31062;BME280;17724;53.546;9.974;2023-03-01T09:50:39;103020.84;;;6.89;69.03
31062;BME280;17724;53.546;9.974;2023-03-01T09:54:41;103016.28;;;6.34;68.94
31062;BME280;17724;53.546;9.974;2023-03-01T10:03:24;103025.91;;;6.69;69.02
31062;BME280;17724;53.546;9.974;2023-03-01T10:07:47;103023.38;;;6.59;69.08
31062;BME280;17724;53.546;9.974;2023-03-01T10:11:54;103026.66;;;6.86;69.35
31062;BME280;17724;53.546;9.974;2023-03-01T10:16:01;103018.19;;;7.04;68.08
31062;BME280;17724;53.546;9.974;2023-03-01T10:24:20;103029.69;;;6.99;68.63
31062;BME280;17724;53.546;9.974;2023-03-01T10:32:52;103019.22;;;6.72;70.00
31062;BME280;17724;53.546;9.974;2023-03-01T10:36:57;103010.78;;;6.81;70.63
31062;BME280;17724;53.546;9.974;2023-03-01T10:41:04;103016.13;;;7.29;69.49
31062;BME280;17724;53.546;9.974;2023-03-01T10:45:35;103013.88;;;7.55;67.63
31062;BME280;17724;53.546;9.974;2023-03-01T10:49:36;103010.78;;;7.12;68.94
31062;BME280;17724;53.546;9.974;2023-03-01T10:53:41;103012.94;;;6.94;71.29
31062;BME280;17724;53.546;9.974;2023-03-01T10:57:42;103010.56;;;6.91;72.17
31062;BME280;17724;53.546;9.974;2023-03-01T11:01:43;103007.91;;;7.06;72.34
31062;BME280;17724;53.546;9.974;2023-03-01T11:05:59;103003.16;;;7.00;73.71
31062;BME280;17724;53.546;9.974;2023-03-01T11:10:11;102992.59;;;6.97;74.20
31062;BME280;17724;53.546;9.974;2023-03-01T11:14:21;102993.44;;;7.20;73.37
31062;BME280;17724;53.546;9.974;2023-03-01T11:18:23;102986.50;;;7.09;73.80
31062;BME280;17724;53.546;9.974;2023-03-01T11:22:23;102981.28;;;7.00;74.56
31062;BME280;17724;53.546;9.974;2023-03-01T11:26:24;102985.63;;;6.86;76.25
31062;BME280;17724;53.546;9.974;2023-03-01T11:30:31;102988.22;;;7.10;75.59
31062;BME280;17724;53.546;9.974;2023-03-01T11:34:48;102978.78;;;7.13;75.97
31062;BME280;17724;53.546;9.974;2023-03-01T11:38:49;102977.75;;;7.14;76.28
31062;BME280;17724;53.546;9.974;2023-03-01T11:43:02;102976.66;;;7.23;75.30
31062;BME280;17724;53.546;9.974;2023-03-01T11:47:29;102972.19;;;7.45;74.65
31062;BME280;17724;53.546;9.974;2023-03-01T11:51:55;102961.31;;;7.37;74.83
31062;BME280;17724;53.546;9.974;2023-03-01T11:56:28;102962.25;;;7.67;74.02
31062;BME280;17724;53.546;9.974;2023-03-01T12:22:31;102934.50;;;7.70;73.93
31062;BME280;17724;53.546;9.974;2023-03-01T12:31:39;102931.56;;;7.86;73.65
31062;BME280;17724;53.546;9.974;2023-03-01T12:40:23;102910.66;;;7.56;74.39
31062;BME280;17724;53.546;9.974;2023-03-01T12:53:04;102889.91;;;8.06;73.52
31062;BME280;17724;53.546;9.974;2023-03-01T12:57:26;102887.16;;;8.06;73.49
31062;BME280;17724;53.546;9.974;2023-03-01T13:06:08;102886.59;;;8.10;74.36
31062;BME280;17724;53.546;9.974;2023-03-01T13:10:16;102881.94;;;8.11;74.66
31062;BME280;17724;53.546;9.974;2023-03-01T13:18:28;102867.66;;;8.30;74.66
31062;BME280;17724;53.546;9.974;2023-03-01T13:22:32;102870.56;;;8.44;73.97
31062;BME280;17724;53.546;9.974;2023-03-01T13:31:10;102870.91;;;8.04;74.81
31062;BME280;17724;53.546;9.974;2023-03-01T13:39:39;102864.56;;;8.04;74.29
31062;BME280;17724;53.546;9.974;2023-03-01T13:43:42;102869.47;;;8.08;74.53
31062;BME280;17724;53.546;9.974;2023-03-01T13:47:44;102855.19;;;8.13;73.68
31062;BME280;17724;53.546;9.974;2023-03-01T13:51:47;102853.28;;;8.28;73.83
31062;BME280;17724;53.546;9.974;2023-03-01T13:55:51;102854.78;;;8.31;74.51
31062;BME280;17724;53.546;9.974;2023-03-01T13:59:54;102846.53;;;8.46;74.34
31062;BME280;17724;53.546;9.974;2023-03-01T14:03:55;102850.88;;;8.55;74.51
31062;BME280;17724;53.546;9.974;2023-03-01T14:07:56;102852.19;;;8.59;75.48
31062;BME280;17724;53.546;9.974;2023-03-01T14:20:29;102821.31;;;8.35;74.58
31062;BME280;17724;53.546;9.974;2023-03-01T14:24:41;102817.03;;;8.33;74.77
31062;BME280;17724;53.546;9.974;2023-03-01T14:28:45;102819.22;;;8.37;75.30
31062;BME280;17724;53.546;9.974;2023-03-01T14:32:56;102820.44;;;8.50;74.79
31062;BME280;17724;53.546;9.974;2023-03-01T14:37:10;102816.50;;;8.37;74.65
31062;BME280;17724;53.546;9.974;2023-03-01T14:41:14;102802.13;;;8.57;74.57
31062;BME280;17724;53.546;9.974;2023-03-01T14:45:16;102804.84;;;8.50;72.75
31062;BME280;17724;53.546;9.974;2023-03-01T14:49:24;102799.47;;;8.63;72.10
31062;BME280;17724;53.546;9.974;2023-03-01T14:53:27;102799.94;;;8.67;71.21
31062;BME280;17724;53.546;9.974;2023-03-01T14:57:29;102785.69;;;8.57;71.49
31062;BME280;17724;53.546;9.974;2023-03-01T15:01:29;102774.84;;;8.70;71.92
31062;BME280;17724;53.546;9.974;2023-03-01T15:05:32;102774.25;;;8.75;71.95
31062;BME280;17724;53.546;9.974;2023-03-01T15:09:34;102771.06;;;8.71;70.56
31062;BME280;17724;53.546;9.974;2023-03-01T15:13:36;102777.91;;;8.60;71.76
31062;BME280;17724;53.546;9.974;2023-03-01T15:17:40;102770.84;;;8.73;73.87
31062;BME280;17724;53.546;9.974;2023-03-01T15:21:44;102765.31;;;8.45;71.33
31062;BME280;17724;53.546;9.974;2023-03-01T15:25:47;102767.19;;;8.66;71.84
31062;BME280;17724;53.546;9.974;2023-03-01T15:30:00;102761.69;;;8.87;71.51
31062;BME280;17724;53.546;9.974;2023-03-01T15:34:35;102763.38;;;8.88;71.30
31062;BME280;17724;53.546;9.974;2023-03-01T15:38:55;102760.94;;;9.00;70.74
31062;BME280;17724;53.546;9.974;2023-03-01T15:47:47;102764.03;;;8.90;69.63
31062;BME280;17724;53.546;9.974;2023-03-01T15:51:54;102750.63;;;8.74;69.77
31062;BME280;17724;53.546;9.974;2023-03-01T15:55:55;102755.19;;;8.95;69.78
31062;BME280;17724;53.546;9.974;2023-03-01T15:59:55;102756.22;;;8.66;69.99
31062;BME280;17724;53.546;9.974;2023-03-01T16:03:56;102757.41;;;8.78;70.47
31062;BME280;17724;53.546;9.974;2023-03-01T16:07:58;102756.56;;;8.56;70.64
31062;BME280;17724;53.546;9.974;2023-03-01T16:11:59;102761.84;;;8.57;71.53
31062;BME280;17724;53.546;9.974;2023-03-01T16:16:00;102752.19;;;8.40;72.77
31062;BME280;17724;53.546;9.974;2023-03-01T16:20:00;102750.69;;;8.37;73.83
31062;BME280;17724;53.546;9.974;2023-03-01T16:24:00;102745.19;;;8.37;73.43
31062;BME280;17724;53.546;9.974;2023-03-01T16:28:01;102748.91;;;8.30;73.88
31062;BME280;17724;53.546;9.974;2023-03-01T16:32:05;102753.00;;;8.19;74.19
31062;BME280;17724;53.546;9.974;2023-03-01T16:36:11;102740.50;;;8.10;74.52
31062;BME280;17724;53.546;9.974;2023-03-01T16:40:18;102737.84;;;8.02;75.38
31062;BME280;17724;53.546;9.974;2023-03-01T16:44:20;102745.56;;;8.13;75.52
31062;BME280;17724;53.546;9.974;2023-03-01T16:48:21;102744.56;;;7.99;75.46
31062;BME280;17724;53.546;9.974;2023-03-01T16:52:22;102744.06;;;8.10;76.05
31062;BME280;17724;53.546;9.974;2023-03-01T16:56:23;102744.13;;;8.17;76.76
31062;BME280;17724;53.546;9.974;2023-03-01T17:00:23;102756.72;;;8.11;75.29
31062;BME280;17724;53.546;9.974;2023-03-01T17:04:24;102752.88;;;8.06;75.39
31062;BME280;17724;53.546;9.974;2023-03-01T17:08:25;102757.91;;;8.02;75.15
31062;BME280;17724;53.546;9.974;2023-03-01T17:12:25;102754.88;;;7.97;77.91
31062;BME280;17724;53.546;9.974;2023-03-01T17:16:26;102769.16;;;7.93;78.10
31062;BME280;17724;53.546;9.974;2023-03-01T17:20:27;102755.31;;;7.79;79.03
31062;BME280;17724;53.546;9.974;2023-03-01T17:24:27;102753.06;;;7.68;78.94
31062;BME280;17724;53.546;9.974;2023-03-01T17:28:31;102753.63;;;7.49;79.41
31062;BME280;17724;53.546;9.974;2023-03-01T17:32:32;102757.69;;;7.53;80.53
31062;BME280;17724;53.546;9.974;2023-03-01T17:36:32;102753.72;;;7.55;81.21
31062;BME280;17724;53.546;9.974;2023-03-01T17:40:41;102764.00;;;7.53;80.53
31062;BME280;17724;53.546;9.974;2023-03-01T17:44:42;102760.25;;;7.39;82.60
31062;BME280;17724;53.546;9.974;2023-03-01T17:48:42;102759.31;;;7.47;82.44
31062;BME280;17724;53.546;9.974;2023-03-01T17:52:43;102762.31;;;7.52;83.71
31062;BME280;17724;53.546;9.974;2023-03-01T17:56:43;102772.50;;;7.14;84.33
31062;BME280;17724;53.546;9.974;2023-03-01T18:00:44;102769.94;;;6.98;88.96
31062;BME280;17724;53.546;9.974;2023-03-01T18:04:45;102769.56;;;7.01;88.64
31062;BME280;17724;53.546;9.974;2023-03-01T18:08:46;102773.75;;;6.74;90.84
31062;BME280;17724;53.546;9.974;2023-03-01T18:12:48;102776.06;;;6.62;89.16
31062;BME280;17724;53.546;9.974;2023-03-01T18:16:48;102780.94;;;6.75;89.08
31062;BME280;17724;53.546;9.974;2023-03-01T18:20:58;102784.53;;;6.52;89.23
31062;BME280;17724;53.546;9.974;2023-03-01T18:24:58;102778.38;;;6.50;90.57
31062;BME280;17724;53.546;9.974;2023-03-01T18:28:59;102780.13;;;6.66;90.15
31062;BME280;17724;53.546;9.974;2023-03-01T18:33:02;102773.38;;;6.39;90.80
31062;BME280;17724;53.546;9.974;2023-03-01T18:37:03;102780.25;;;6.35;89.60
31062;BME280;17724;53.546;9.974;2023-03-01T18:41:03;102781.25;;;6.34;92.22
31062;BME280;17724;53.546;9.974;2023-03-01T18:45:04;102779.50;;;6.41;93.09
31062;BME280;17724;53.546;9.974;2023-03-01T18:49:06;102784.16;;;6.09;92.88
31062;BME280;17724;53.546;9.974;2023-03-01T18:53:07;102788.34;;;6.20;92.36
31062;BME280;17724;53.546;9.974;2023-03-01T18:57:08;102798.78;;;6.16;91.00
31062;BME280;17724;53.546;9.974;2023-03-01T19:01:20;102809.47;;;6.03;90.96
31062;BME280;17724;53.546;9.974;2023-03-01T19:05:21;102807.34;;;5.74;91.42
31062;BME280;17724;53.546;9.974;2023-03-01T19:09:22;102810.00;;;5.51;92.46
31062;BME280;17724;53.546;9.974;2023-03-01T19:13:23;102802.97;;;4.93;93.94
31062;BME280;17724;53.546;9.974;2023-03-01T19:17:24;102804.16;;;4.74;97.62
31062;BME280;17724;53.546;9.974;2023-03-01T19:21:31;102814.38;;;4.88;97.81
31062;BME280;17724;53.546;9.974;2023-03-01T19:25:33;102818.47;;;5.01;97.69
31062;BME280;17724;53.546;9.974;2023-03-01T19:29:33;102809.09;;;4.70;100.00
31062;BME280;17724;53.546;9.974;2023-03-01T19:33:35;102814.06;;;4.59;99.54
31062;BME280;17724;53.546;9.974;2023-03-01T19:37:36;102818.63;;;4.58;100.00
31062;BME280;17724;53.546;9.974;2023-03-01T19:41:36;102826.13;;;4.73;100.00
31062;BME280;17724;53.546;9.974;2023-03-01T19:45:37;102826.66;;;4.52;100.00
31062;BME280;17724;53.546;9.974;2023-03-01T19:49:37;102825.28;;;4.48;100.00
31062;BME280;17724;53.546;9.974;2023-03-01T19:53:39;102827.69;;;4.67;100.00
31062;BME280;17724;53.546;9.974;2023-03-01T19:57:39;102820.34;;;4.43;100.00
31062;BME280;17724;53.546;9.974;2023-03-01T20:01:40;102819.28;;;4.28;100.00
31062;BME280;17724;53.546;9.974;2023-03-01T20:05:43;102821.00;;;4.45;100.00
31062;BME280;17724;53.546;9.974;2023-03-01T20:09:43;102825.28;;;4.48;100.00
31062;BME280;17724;53.546;9.974;2023-03-01T20:13:45;102837.56;;;4.52;100.00
31062;BME280;17724;53.546;9.974;2023-03-01T20:17:45;102837.22;;;4.63;100.00
31062;BME280;17724;53.546;9.974;2023-03-01T20:21:46;102828.00;;;4.48;100.00
31062;BME280;17724;53.546;9.974;2023-03-01T20:25:49;102831.91;;;4.37;100.00
31062;BME280;17724;53.546;9.974;2023-03-01T20:29:50;102819.13;;;4.45;100.00
31062;BME280;17724;53.546;9.974;2023-03-01T20:33:54;102814.53;;;4.46;100.00
31062;BME280;17724;53.546;9.974;2023-03-01T20:37:55;102815.91;;;4.58;100.00
31062;BME280;17724;53.546;9.974;2023-03-01T20:41:55;102816.06;;;4.40;100.00
31062;BME280;17724;53.546;9.974;2023-03-01T20:45:56;102821.72;;;4.55;100.00
31062;BME280;17724;53.546;9.974;2023-03-01T20:49:56;102825.44;;;4.62;100.00
31062;BME280;17724;53.546;9.974;2023-03-01T20:54:00;102827.50;;;4.52;100.00
31062;BME280;17724;53.546;9.974;2023-03-01T20:58:01;102832.25;;;4.50;100.00
31062;BME280;17724;53.546;9.974;2023-03-01T21:02:01;102823.53;;;4.22;100.00
31062;BME280;17724;53.546;9.974;2023-03-01T21:06:03;102828.94;;;4.14;100.00
31062;BME280;17724;53.546;9.974;2023-03-01T21:10:05;102818.59;;;4.26;100.00
31062;BME280;17724;53.546;9.974;2023-03-01T21:14:06;102824.25;;;4.40;100.00
31062;BME280;17724;53.546;9.974;2023-03-01T21:18:06;102826.25;;;4.38;100.00
31062;BME280;17724;53.546;9.974;2023-03-01T21:22:07;102834.28;;;4.32;100.00
31062;BME280;17724;53.546;9.974;2023-03-01T21:30:10;102832.41;;;4.32;100.00
31062;BME280;17724;53.546;9.974;2023-03-01T21:34:11;102833.25;;;4.25;100.00
31062;BME280;17724;53.546;9.974;2023-03-01T21:38:12;102833.22;;;4.16;100.00
31062;BME280;17724;53.546;9.974;2023-03-01T21:42:13;102838.16;;;4.21;100.00
31062;BME280;17724;53.546;9.974;2023-03-01T21:46:17;102831.97;;;4.03;100.00
31062;BME280;17724;53.546;9.974;2023-03-01T21:50:17;102828.31;;;4.28;100.00
31062;BME280;17724;53.546;9.974;2023-03-01T21:54:19;102833.22;;;4.16;100.00
31062;BME280;17724;53.546;9.974;2023-03-01T21:58:20;102842.19;;;4.01;100.00
31062;BME280;17724;53.546;9.974;2023-03-01T22:02:21;102835.50;;;3.87;100.00
31062;BME280;17724;53.546;9.974;2023-03-01T22:06:26;102829.34;;;3.77;100.00
31062;BME280;17724;53.546;9.974;2023-03-01T22:10:29;102835.56;;;3.61;100.00
31062;BME280;17724;53.546;9.974;2023-03-01T22:14:31;102832.31;;;3.57;100.00
31062;BME280;17724;53.546;9.974;2023-03-01T22:18:32;102827.88;;;3.56;100.00
31062;BME280;17724;53.546;9.974;2023-03-01T22:22:32;102841.50;;;3.30;100.00
31062;BME280;17724;53.546;9.974;2023-03-01T22:26:39;102842.50;;;3.55;100.00
31062;BME280;17724;53.546;9.974;2023-03-01T22:30:39;102833.13;;;3.84;100.00
31062;BME280;17724;53.546;9.974;2023-03-01T22:34:40;102827.84;;;3.90;100.00
31062;BME280;17724;53.546;9.974;2023-03-01T22:38:40;102826.66;;;3.85;100.00
31062;BME280;17724;53.546;9.974;2023-03-01T22:42:41;102830.19;;;3.77;100.00
31062;BME280;17724;53.546;9.974;2023-03-01T22:46:42;102827.22;;;3.62;100.00
31062;BME280;17724;53.546;9.974;2023-03-01T22:50:44;102824.47;;;3.54;100.00
31062;BME280;17724;53.546;9.974;2023-03-01T22:54:45;102828.34;;;3.43;100.00
31062;BME280;17724;53.546;9.974;2023-03-01T22:58:46;102810.31;;;3.51;100.00
31062;BME280;17724;53.546;9.974;2023-03-01T23:02:46;102821.09;;;3.60;100.00
31062;BME280;17724;53.546;9.974;2023-03-01T23:06:47;102821.91;;;3.53;100.00